sensor_id;sensor_type;location;lat;lon;timestamp;pressure;altitude;pressure_sealevel;temperature;humidity
13027;BME280;6580;42.680;23.324;2023-08-06T00:00:06;94167.28;;;21.29;100.00
13027;BME280;6580;42.680;23.324;2023-08-06T00:02:53;94133.06;;;21.06;100.00
13027;BME280;6580;42.680;23.324;2023-08-06T00:05:41;94140.63;;;20.88;100.00
13027;BME280;6580;42.680;23.324;2023-08-06T00:08:27;94180.44;;;20.59;100.00
13027;BME280;6580;42.680;23.324;2023-08-06T00:11:12;94174.38;;;20.69;100.00
13027;BME280;6580;42.680;23.324;2023-08-06T00:13:58;94175.09;;;20.92;100.00
13027;BME280;6580;42.680;23.324;2023-08-06T00:16:44;94172.78;;;21.01;100.00
13027;BME280;6580;42.680;23.324;2023-08-06T00:19:31;94147.59;;;20.84;100.00
13027;BME280;6580;42.680;23.324;2023-08-06T00:22:16;94143.75;;;20.96;100.00
13027;BME280;6580;42.680;23.324;2023-08-06T00:25:03;94154.22;;;21.09;100.00
13027;BME280;6580;42.680;23.324;2023-08-06T00:27:48;94165.91;;;20.93;100.00
13027;BME280;6580;42.680;23.324;2023-08-06T00:30:34;94160.16;;;20.90;100.00
13027;BME280;6580;42.680;23.324;2023-08-06T00:33:19;94148.34;;;20.79;100.00
13027;BME280;6580;42.680;23.324;2023-08-06T00:36:07;94132.25;;;20.89;100.00
13027;BME280;6580;42.680;23.324;2023-08-06T00:38:53;94136.88;;;20.89;100.00
13027;BME280;6580;42.680;23.324;2023-08-06T00:41:39;94134.88;;;21.01;100.00
13027;BME280;6580;42.680;23.324;2023-08-06T00:44:25;94130.13;;;21.08;100.00
13027;BME280;6580;42.680;23.324;2023-08-06T00:47:10;94132.97;;;21.18;100.00
13027;BME280;6580;42.680;23.324;2023-08-06T00:49:57;94116.84;;;20.90;100.00
13027;BME280;6580;42.680;23.324;2023-08-06T00:52:45;94134.22;;;21.10;100.00
13027;BME280;6580;42.680;23.324;2023-08-06T00:55:30;94133.91;;;20.90;100.00
13027;BME280;6580;42.680;23.324;2023-08-06T00:58:16;94121.41;;;20.73;100.00
13027;BME280;6580;42.680;23.324;2023-08-06T01:01:02;94115.88;;;20.79;100.00
13027;BME280;6580;42.680;23.324;2023-08-06T01:03:47;94117.94;;;20.61;100.00
13027;BME280;6580;42.680;23.324;2023-08-06T01:06:39;94093.97;;;20.81;100.00
13027;BME280;6580;42.680;23.324;2023-08-06T01:09:37;94078.19;;;20.94;100.00
13027;BME280;6580;42.680;23.324;2023-08-06T01:12:37;94086.06;;;20.96;100.00
13027;BME280;6580;42.680;23.324;2023-08-06T01:15:30;94100.59;;;20.90;100.00
13027;BME280;6580;42.680;23.324;2023-08-06T01:18:18;94091.56;;;20.84;100.00
13027;BME280;6580;42.680;23.324;2023-08-06T01:21:05;94096.00;;;20.74;100.00
13027;BME280;6580;42.680;23.324;2023-08-06T01:23:51;94090.69;;;20.79;100.00
13027;BME280;6580;42.680;23.324;2023-08-06T01:26:41;94092.22;;;20.91;100.00
13027;BME280;6580;42.680;23.324;2023-08-06T01:29:30;94078.28;;;20.99;100.00
13027;BME280;6580;42.680;23.324;2023-08-06T01:32:20;94076.88;;;20.97;100.00
13027;BME280;6580;42.680;23.324;2023-08-06T01:35:06;94069.72;;;21.07;100.00
13027;BME280;6580;42.680;23.324;2023-08-06T01:37:54;94073.84;;;20.93;100.00
13027;BME280;6580;42.680;23.324;2023-08-06T01:40:40;94071.53;;;21.02;100.00
13027;BME280;6580;42.680;23.324;2023-08-06T01:43:26;94070.88;;;20.95;100.00
13027;BME280;6580;42.680;23.324;2023-08-06T01:46:11;94068.78;;;20.80;100.00
13027;BME280;6580;42.680;23.324;2023-08-06T01:48:57;94067.34;;;20.78;100.00
13027;BME280;6580;42.680;23.324;2023-08-06T01:51:43;94081.50;;;20.80;100.00
13027;BME280;6580;42.680;23.324;2023-08-06T01:54:31;94076.31;;;20.95;100.00
13027;BME280;6580;42.680;23.324;2023-08-06T01:57:18;94073.75;;;21.05;100.00
13027;BME280;6580;42.680;23.324;2023-08-06T02:00:05;94072.78;;;20.94;100.00
13027;BME280;6580;42.680;23.324;2023-08-06T02:02:52;94050.88;;;20.96;100.00
13027;BME280;6580;42.680;23.324;2023-08-06T02:05:38;94055.31;;;21.02;100.00
13027;BME280;6580;42.680;23.324;2023-08-06T02:08:25;94052.19;;;21.10;100.00
13027;BME280;6580;42.680;23.324;2023-08-06T02:11:14;94045.03;;;21.04;100.00
13027;BME280;6580;42.680;23.324;2023-08-06T02:14:00;94050.75;;;20.86;100.00
13027;BME280;6580;42.680;23.324;2023-08-06T02:16:45;94060.91;;;20.79;100.00
13027;BME280;6580;42.680;23.324;2023-08-06T02:19:31;94061.06;;;20.89;100.00
13027;BME280;6580;42.680;23.324;2023-08-06T02:22:16;94078.28;;;20.99;100.00
13027;BME280;6580;42.680;23.324;2023-08-06T02:25:02;94093.19;;;21.02;100.00
13027;BME280;6580;42.680;23.324;2023-08-06T02:27:49;94099.00;;;21.10;100.00
13027;BME280;6580;42.680;23.324;2023-08-06T02:30:34;94082.06;;;20.98;100.00
13027;BME280;6580;42.680;23.324;2023-08-06T02:33:19;94087.78;;;20.69;100.00
13027;BME280;6580;42.680;23.324;2023-08-06T02:36:05;94084.03;;;20.70;100.00
13027;BME280;6580;42.680;23.324;2023-08-06T02:38:50;94098.75;;;20.46;100.00
13027;BME280;6580;42.680;23.324;2023-08-06T02:41:53;94126.81;;;20.56;100.00
13027;BME280;6580;42.680;23.324;2023-08-06T02:44:40;94141.16;;;20.57;100.00
13027;BME280;6580;42.680;23.324;2023-08-06T02:47:26;94130.13;;;20.31;100.00
13027;BME280;6580;42.680;23.324;2023-08-06T02:50:11;94111.72;;;20.60;100.00
13027;BME280;6580;42.680;23.324;2023-08-06T02:52:57;94101.41;;;20.74;100.00
13027;BME280;6580;42.680;23.324;2023-08-06T02:55:45;94066.97;;;20.53;100.00
13027;BME280;6580;42.680;23.324;2023-08-06T02:58:32;94078.44;;;20.44;100.00
13027;BME280;6580;42.680;23.324;2023-08-06T03:01:18;94055.00;;;20.49;100.00
13027;BME280;6580;42.680;23.324;2023-08-06T03:04:04;94044.00;;;20.39;100.00
13027;BME280;6580;42.680;23.324;2023-08-06T03:06:51;94077.22;;;20.51;100.00
13027;BME280;6580;42.680;23.324;2023-08-06T03:09:37;94037.44;;;20.51;100.00
13027;BME280;6580;42.680;23.324;2023-08-06T03:12:22;94027.47;;;20.52;100.00
13027;BME280;6580;42.680;23.324;2023-08-06T03:15:09;94055.41;;;20.41;100.00
13027;BME280;6580;42.680;23.324;2023-08-06T03:17:57;94078.84;;;20.19;100.00
13027;BME280;6580;42.680;23.324;2023-08-06T03:20:44;94056.81;;;20.44;100.00
13027;BME280;6580;42.680;23.324;2023-08-06T03:23:30;94029.81;;;20.65;100.00
13027;BME280;6580;42.680;23.324;2023-08-06T03:26:16;94029.59;;;20.50;100.00
13027;BME280;6580;42.680;23.324;2023-08-06T03:29:02;94062.19;;;20.60;100.00
13027;BME280;6580;42.680;23.324;2023-08-06T03:31:47;94086.16;;;20.35;100.00
13027;BME280;6580;42.680;23.324;2023-08-06T03:34:34;94115.53;;;20.15;100.00
13027;BME280;6580;42.680;23.324;2023-08-06T03:37:20;94120.53;;;20.23;100.00
13027;BME280;6580;42.680;23.324;2023-08-06T03:40:06;94111.13;;;20.42;100.00
13027;BME280;6580;42.680;23.324;2023-08-06T03:42:52;94096.31;;;20.61;100.00
13027;BME280;6580;42.680;23.324;2023-08-06T03:45:37;94102.56;;;20.61;100.00
13027;BME280;6580;42.680;23.324;2023-08-06T03:48:23;94107.09;;;20.89;100.00
13027;BME280;6580;42.680;23.324;2023-08-06T03:51:10;94085.59;;;20.82;100.00
13027;BME280;6580;42.680;23.324;2023-08-06T03:53:55;94091.78;;;20.66;100.00
13027;BME280;6580;42.680;23.324;2023-08-06T03:56:43;94092.88;;;20.82;100.00
13027;BME280;6580;42.680;23.324;2023-08-06T03:59:30;94099.59;;;20.96;100.00
13027;BME280;6580;42.680;23.324;2023-08-06T04:02:16;94101.34;;;20.85;100.00
13027;BME280;6580;42.680;23.324;2023-08-06T04:05:01;94117.25;;;20.82;100.00
13027;BME280;6580;42.680;23.324;2023-08-06T04:07:48;94126.31;;;20.76;100.00
13027;BME280;6580;42.680;23.324;2023-08-06T04:10:33;94128.81;;;20.94;100.00
13027;BME280;6580;42.680;23.324;2023-08-06T04:13:19;94135.53;;;20.91;100.00
13027;BME280;6580;42.680;23.324;2023-08-06T04:16:05;94133.81;;;20.85;100.00
13027;BME280;6580;42.680;23.324;2023-08-06T04:18:51;94122.97;;;20.85;100.00
13027;BME280;6580;42.680;23.324;2023-08-06T04:21:39;94101.63;;;20.72;100.00
13027;BME280;6580;42.680;23.324;2023-08-06T04:24:27;94101.81;;;20.99;100.00
13027;BME280;6580;42.680;23.324;2023-08-06T04:27:14;94090.56;;;21.07;100.00
13027;BME280;6580;42.680;23.324;2023-08-06T04:30:00;94102.97;;;21.03;100.00
13027;BME280;6580;42.680;23.324;2023-08-06T04:32:45;94099.09;;;21.15;100.00
13027;BME280;6580;42.680;23.324;2023-08-06T04:35:31;94106.81;;;21.07;100.00
13027;BME280;6580;42.680;23.324;2023-08-06T04:38:17;94076.03;;;21.13;100.00
13027;BME280;6580;42.680;23.324;2023-08-06T04:41:04;94080.06;;;21.32;100.00
13027;BME280;6580;42.680;23.324;2023-08-06T04:43:53;94059.63;;;21.41;100.00
13027;BME280;6580;42.680;23.324;2023-08-06T04:46:39;94052.38;;;21.25;100.00
13027;BME280;6580;42.680;23.324;2023-08-06T04:49:27;94047.53;;;21.27;100.00
13027;BME280;6580;42.680;23.324;2023-08-06T04:52:12;94035.06;;;21.26;100.00
13027;BME280;6580;42.680;23.324;2023-08-06T04:54:57;94023.13;;;21.05;100.00
13027;BME280;6580;42.680;23.324;2023-08-06T04:57:44;94013.31;;;21.21;100.00
13027;BME280;6580;42.680;23.324;2023-08-06T05:00:30;94024.91;;;21.38;100.00
13027;BME280;6580;42.680;23.324;2023-08-06T05:03:16;94018.34;;;21.34;100.00
13027;BME280;6580;42.680;23.324;2023-08-06T05:06:01;94015.44;;;21.40;100.00
13027;BME280;6580;42.680;23.324;2023-08-06T05:08:47;94022.78;;;21.40;100.00
13027;BME280;6580;42.680;23.324;2023-08-06T05:11:32;94018.59;;;21.75;100.00
13027;BME280;6580;42.680;23.324;2023-08-06T05:14:19;94018.41;;;21.81;100.00
13027;BME280;6580;42.680;23.324;2023-08-06T05:17:05;94016.44;;;21.77;100.00
13027;BME280;6580;42.680;23.324;2023-08-06T05:19:51;94016.09;;;21.95;100.00
13027;BME280;6580;42.680;23.324;2023-08-06T05:22:36;94022.69;;;22.30;100.00
13027;BME280;6580;42.680;23.324;2023-08-06T05:25:22;94020.06;;;23.08;100.00
13027;BME280;6580;42.680;23.324;2023-08-06T05:28:08;94024.31;;;22.99;100.00
13027;BME280;6580;42.680;23.324;2023-08-06T05:30:56;94008.00;;;23.40;100.00
13027;BME280;6580;42.680;23.324;2023-08-06T05:33:41;94011.00;;;23.39;100.00
13027;BME280;6580;42.680;23.324;2023-08-06T05:36:27;94003.66;;;23.44;100.00
13027;BME280;6580;42.680;23.324;2023-08-06T05:39:15;94000.31;;;23.88;100.00
13027;BME280;6580;42.680;23.324;2023-08-06T05:42:02;94001.69;;;23.96;100.00
13027;BME280;6580;42.680;23.324;2023-08-06T05:44:51;93993.56;;;24.16;100.00
13027;BME280;6580;42.680;23.324;2023-08-06T05:47:41;93973.19;;;24.18;100.00
13027;BME280;6580;42.680;23.324;2023-08-06T05:50:28;93988.44;;;24.84;100.00
13027;BME280;6580;42.680;23.324;2023-08-06T05:53:13;93988.13;;;25.93;100.00
13027;BME280;6580;42.680;23.324;2023-08-06T05:55:59;93982.09;;;27.30;100.00
13027;BME280;6580;42.680;23.324;2023-08-06T05:58:44;93980.25;;;27.49;91.76
13027;BME280;6580;42.680;23.324;2023-08-06T06:01:31;93986.03;;;28.68;84.81
13027;BME280;6580;42.680;23.324;2023-08-06T06:04:19;93987.69;;;28.87;78.74
13027;BME280;6580;42.680;23.324;2023-08-06T06:07:05;93991.03;;;28.84;71.55
13027;BME280;6580;42.680;23.324;2023-08-06T06:09:50;93990.03;;;29.39;72.01
13027;BME280;6580;42.680;23.324;2023-08-06T06:12:37;93999.22;;;27.40;81.78
13027;BME280;6580;42.680;23.324;2023-08-06T06:15:23;94004.84;;;26.97;84.45
13027;BME280;6580;42.680;23.324;2023-08-06T06:18:09;93987.72;;;27.90;78.04
13027;BME280;6580;42.680;23.324;2023-08-06T06:20:56;94005.84;;;29.47;70.22
13027;BME280;6580;42.680;23.324;2023-08-06T06:23:43;94014.56;;;30.56;64.25
13027;BME280;6580;42.680;23.324;2023-08-06T06:26:28;94028.50;;;31.17;61.24
13027;BME280;6580;42.680;23.324;2023-08-06T06:29:17;94028.09;;;30.88;59.62
13027;BME280;6580;42.680;23.324;2023-08-06T06:32:02;94037.88;;;30.59;63.97
13027;BME280;6580;42.680;23.324;2023-08-06T06:34:49;94037.22;;;29.09;66.39
13027;BME280;6580;42.680;23.324;2023-08-06T06:37:38;94048.06;;;30.31;61.93
13027;BME280;6580;42.680;23.324;2023-08-06T06:40:23;94045.22;;;30.36;62.60
13027;BME280;6580;42.680;23.324;2023-08-06T06:43:09;94054.94;;;29.62;62.72
13027;BME280;6580;42.680;23.324;2023-08-06T06:45:57;94058.38;;;29.54;67.27
13027;BME280;6580;42.680;23.324;2023-08-06T06:48:43;94062.00;;;27.84;74.65
13027;BME280;6580;42.680;23.324;2023-08-06T06:51:28;94079.00;;;26.85;85.72
13027;BME280;6580;42.680;23.324;2023-08-06T06:54:17;94079.13;;;27.09;83.14
13027;BME280;6580;42.680;23.324;2023-08-06T06:57:02;94083.97;;;26.83;85.91
13027;BME280;6580;42.680;23.324;2023-08-06T06:59:48;94084.47;;;26.85;86.39
13027;BME280;6580;42.680;23.324;2023-08-06T07:02:34;94085.13;;;26.73;86.00
13027;BME280;6580;42.680;23.324;2023-08-06T07:05:19;94090.13;;;27.89;75.53
13027;BME280;6580;42.680;23.324;2023-08-06T07:08:05;94082.94;;;28.58;71.48
13027;BME280;6580;42.680;23.324;2023-08-06T07:10:59;94085.88;;;29.94;67.47
13027;BME280;6580;42.680;23.324;2023-08-06T07:13:46;94085.47;;;28.73;64.56
13027;BME280;6580;42.680;23.324;2023-08-06T07:16:32;94098.09;;;28.32;62.66
13027;BME280;6580;42.680;23.324;2023-08-06T07:19:18;94095.88;;;29.90;60.33
13027;BME280;6580;42.680;23.324;2023-08-06T07:22:04;94096.38;;;29.92;55.03
13027;BME280;6580;42.680;23.324;2023-08-06T07:24:51;94096.72;;;30.17;51.86
13027;BME280;6580;42.680;23.324;2023-08-06T07:27:38;94097.34;;;29.37;55.00
13027;BME280;6580;42.680;23.324;2023-08-06T07:30:24;94096.28;;;30.78;51.28
13027;BME280;6580;42.680;23.324;2023-08-06T07:33:10;94099.13;;;31.43;48.36
13027;BME280;6580;42.680;23.324;2023-08-06T07:35:56;94092.13;;;32.59;45.29
13027;BME280;6580;42.680;23.324;2023-08-06T07:38:41;94094.03;;;33.23;42.54
13027;BME280;6580;42.680;23.324;2023-08-06T07:41:27;94074.88;;;34.23;39.96
13027;BME280;6580;42.680;23.324;2023-08-06T07:44:14;94086.38;;;32.00;43.37
13027;BME280;6580;42.680;23.324;2023-08-06T07:47:00;94085.31;;;31.00;46.80
13027;BME280;6580;42.680;23.324;2023-08-06T07:49:45;94087.81;;;31.23;47.81
13027;BME280;6580;42.680;23.324;2023-08-06T07:52:31;94081.84;;;30.32;47.42
13027;BME280;6580;42.680;23.324;2023-08-06T07:55:16;94090.41;;;31.06;47.43
13027;BME280;6580;42.680;23.324;2023-08-06T07:58:02;94080.13;;;30.63;46.25
13027;BME280;6580;42.680;23.324;2023-08-06T08:00:49;94085.94;;;31.10;47.72
13027;BME280;6580;42.680;23.324;2023-08-06T08:03:34;94072.75;;;32.81;44.10
13027;BME280;6580;42.680;23.324;2023-08-06T08:06:20;94062.06;;;34.18;39.89
13027;BME280;6580;42.680;23.324;2023-08-06T08:09:05;94072.28;;;32.01;44.19
13027;BME280;6580;42.680;23.324;2023-08-06T08:11:51;94074.72;;;30.31;47.86
13027;BME280;6580;42.680;23.324;2023-08-06T08:14:38;94075.53;;;30.31;48.82
13027;BME280;6580;42.680;23.324;2023-08-06T08:17:24;94074.72;;;30.44;49.91
13027;BME280;6580;42.680;23.324;2023-08-06T08:20:10;94086.59;;;29.86;51.02
13027;BME280;6580;42.680;23.324;2023-08-06T08:22:57;94080.53;;;31.49;47.03
13027;BME280;6580;42.680;23.324;2023-08-06T08:25:43;94081.53;;;31.75;46.57
13027;BME280;6580;42.680;23.324;2023-08-06T08:28:28;94079.28;;;31.33;45.96
13027;BME280;6580;42.680;23.324;2023-08-06T08:31:14;94081.03;;;29.91;49.73
13027;BME280;6580;42.680;23.324;2023-08-06T08:34:03;94074.91;;;29.81;48.89
13027;BME280;6580;42.680;23.324;2023-08-06T08:36:49;94081.06;;;28.54;51.45
13027;BME280;6580;42.680;23.324;2023-08-06T08:39:34;94073.53;;;31.21;46.45
13027;BME280;6580;42.680;23.324;2023-08-06T08:42:20;94075.44;;;30.99;48.06
13027;BME280;6580;42.680;23.324;2023-08-06T08:45:11;94076.53;;;32.07;44.80
13027;BME280;6580;42.680;23.324;2023-08-06T08:47:58;94073.19;;;31.88;43.88
13027;BME280;6580;42.680;23.324;2023-08-06T08:50:47;94068.25;;;32.07;43.98
13027;BME280;6580;42.680;23.324;2023-08-06T08:53:34;94065.69;;;30.30;47.91
13027;BME280;6580;42.680;23.324;2023-08-06T08:56:22;94062.53;;;31.65;46.79
13027;BME280;6580;42.680;23.324;2023-08-06T08:59:10;94054.72;;;33.51;41.11
13027;BME280;6580;42.680;23.324;2023-08-06T09:01:56;94044.13;;;33.78;40.42
13027;BME280;6580;42.680;23.324;2023-08-06T09:04:42;94049.78;;;31.25;44.13
13027;BME280;6580;42.680;23.324;2023-08-06T09:07:34;94048.47;;;29.07;52.38
13027;BME280;6580;42.680;23.324;2023-08-06T09:10:20;94041.25;;;29.30;54.09
13027;BME280;6580;42.680;23.324;2023-08-06T09:13:08;94044.84;;;30.03;53.48
13027;BME280;6580;42.680;23.324;2023-08-06T09:15:56;94041.28;;;33.24;44.70
13027;BME280;6580;42.680;23.324;2023-08-06T09:18:41;94030.19;;;35.07;39.59
13027;BME280;6580;42.680;23.324;2023-08-06T09:21:45;94025.84;;;34.03;40.35
13027;BME280;6580;42.680;23.324;2023-08-06T09:24:38;94028.59;;;32.72;42.88
13027;BME280;6580;42.680;23.324;2023-08-06T09:27:23;94031.44;;;30.63;46.52
13027;BME280;6580;42.680;23.324;2023-08-06T09:30:10;94034.34;;;30.80;45.24
13027;BME280;6580;42.680;23.324;2023-08-06T09:32:55;94027.19;;;31.97;43.51
13027;BME280;6580;42.680;23.324;2023-08-06T09:35:41;94016.22;;;33.63;39.63
13027;BME280;6580;42.680;23.324;2023-08-06T09:38:37;94010.44;;;34.31;36.70
13027;BME280;6580;42.680;23.324;2023-08-06T09:41:28;94013.19;;;31.77;38.90
13027;BME280;6580;42.680;23.324;2023-08-06T09:44:18;94006.59;;;32.33;39.34
13027;BME280;6580;42.680;23.324;2023-08-06T09:47:04;94004.41;;;32.86;37.25
13027;BME280;6580;42.680;23.324;2023-08-06T09:49:50;94002.94;;;32.63;38.36
13027;BME280;6580;42.680;23.324;2023-08-06T09:52:37;94012.47;;;33.67;36.84
13027;BME280;6580;42.680;23.324;2023-08-06T09:55:24;94012.34;;;33.64;35.38
13027;BME280;6580;42.680;23.324;2023-08-06T09:58:11;94005.22;;;32.78;37.23
13027;BME280;6580;42.680;23.324;2023-08-06T10:00:58;94008.16;;;32.82;37.05
13027;BME280;6580;42.680;23.324;2023-08-06T10:03:44;94014.47;;;30.34;40.46
13027;BME280;6580;42.680;23.324;2023-08-06T10:06:35;94028.19;;;30.61;42.45
13027;BME280;6580;42.680;23.324;2023-08-06T10:09:21;94028.84;;;31.02;40.71
13027;BME280;6580;42.680;23.324;2023-08-06T10:12:06;94038.28;;;30.66;41.33
13027;BME280;6580;42.680;23.324;2023-08-06T10:14:54;94027.28;;;30.39;42.19
13027;BME280;6580;42.680;23.324;2023-08-06T10:17:42;94032.09;;;30.06;42.83
13027;BME280;6580;42.680;23.324;2023-08-06T10:20:33;94026.41;;;28.81;44.46
13027;BME280;6580;42.680;23.324;2023-08-06T10:23:19;94024.78;;;32.04;40.24
13027;BME280;6580;42.680;23.324;2023-08-06T10:26:05;94025.72;;;30.95;40.64
13027;BME280;6580;42.680;23.324;2023-08-06T10:28:50;94025.16;;;29.69;43.10
13027;BME280;6580;42.680;23.324;2023-08-06T10:31:59;94032.97;;;29.48;45.49
13027;BME280;6580;42.680;23.324;2023-08-06T10:34:58;94039.09;;;29.59;46.16
13027;BME280;6580;42.680;23.324;2023-08-06T10:37:45;94043.97;;;29.62;46.54
13027;BME280;6580;42.680;23.324;2023-08-06T10:40:32;94042.13;;;29.57;45.57
13027;BME280;6580;42.680;23.324;2023-08-06T10:43:25;94044.03;;;28.75;48.50
13027;BME280;6580;42.680;23.324;2023-08-06T10:46:21;94060.66;;;28.65;49.29
13027;BME280;6580;42.680;23.324;2023-08-06T10:49:08;94062.56;;;29.33;48.30
13027;BME280;6580;42.680;23.324;2023-08-06T10:51:54;94065.09;;;28.61;50.02
13027;BME280;6580;42.680;23.324;2023-08-06T10:54:39;94071.56;;;28.04;51.01
13027;BME280;6580;42.680;23.324;2023-08-06T10:57:24;94066.81;;;27.91;51.04
13027;BME280;6580;42.680;23.324;2023-08-06T11:00:14;94066.81;;;27.91;51.62
13027;BME280;6580;42.680;23.324;2023-08-06T11:02:59;94080.31;;;28.06;52.15
13027;BME280;6580;42.680;23.324;2023-08-06T11:05:52;94087.03;;;27.95;52.10
13027;BME280;6580;42.680;23.324;2023-08-06T11:08:47;94083.78;;;27.37;53.67
13027;BME280;6580;42.680;23.324;2023-08-06T11:11:34;94090.41;;;27.59;54.21
13027;BME280;6580;42.680;23.324;2023-08-06T11:14:22;94083.09;;;27.78;53.23
13027;BME280;6580;42.680;23.324;2023-08-06T11:17:08;94086.63;;;27.55;55.42
13027;BME280;6580;42.680;23.324;2023-08-06T11:19:53;94095.63;;;27.56;70.08
13027;BME280;6580;42.680;23.324;2023-08-06T11:22:44;94111.19;;;27.32;70.53
13027;BME280;6580;42.680;23.324;2023-08-06T11:25:30;94129.59;;;26.78;81.83
13027;BME280;6580;42.680;23.324;2023-08-06T11:28:19;94117.97;;;26.63;95.47
13027;BME280;6580;42.680;23.324;2023-08-06T11:31:05;94118.19;;;26.18;90.09
13027;BME280;6580;42.680;23.324;2023-08-06T11:33:51;94103.63;;;26.37;91.96
13027;BME280;6580;42.680;23.324;2023-08-06T11:36:40;94105.16;;;26.58;87.46
13027;BME280;6580;42.680;23.324;2023-08-06T11:39:29;94103.84;;;26.51;85.44
13027;BME280;6580;42.680;23.324;2023-08-06T11:42:15;94102.56;;;28.00;81.36
13027;BME280;6580;42.680;23.324;2023-08-06T11:45:05;94086.28;;;29.10;72.60
13027;BME280;6580;42.680;23.324;2023-08-06T11:47:53;94085.00;;;28.66;71.37
13027;BME280;6580;42.680;23.324;2023-08-06T11:50:42;94080.22;;;28.95;70.32
13027;BME280;6580;42.680;23.324;2023-08-06T11:53:29;94072.78;;;30.58;60.44
13027;BME280;6580;42.680;23.324;2023-08-06T11:56:17;94076.25;;;32.17;53.27
13027;BME280;6580;42.680;23.324;2023-08-06T11:59:04;94076.06;;;32.61;48.84
13027;BME280;6580;42.680;23.324;2023-08-06T12:01:52;94061.00;;;32.67;46.27
13027;BME280;6580;42.680;23.324;2023-08-06T12:05:10;94055.88;;;33.41;45.04
13027;BME280;6580;42.680;23.324;2023-08-06T12:07:57;94064.16;;;33.25;41.86
13027;BME280;6580;42.680;23.324;2023-08-06T12:10:44;94062.97;;;33.85;44.91
13027;BME280;6580;42.680;23.324;2023-08-06T12:13:32;94051.03;;;33.30;40.92
13027;BME280;6580;42.680;23.324;2023-08-06T12:16:17;94051.31;;;32.86;42.04
13027;BME280;6580;42.680;23.324;2023-08-06T12:19:05;94049.34;;;32.78;41.22
13027;BME280;6580;42.680;23.324;2023-08-06T12:21:50;94046.81;;;33.16;39.75
13027;BME280;6580;42.680;23.324;2023-08-06T12:24:36;94037.41;;;32.35;37.54
13027;BME280;6580;42.680;23.324;2023-08-06T12:27:21;94044.31;;;32.63;39.40
13027;BME280;6580;42.680;23.324;2023-08-06T12:30:09;94058.19;;;31.72;41.34
13027;BME280;6580;42.680;23.324;2023-08-06T12:33:13;94057.81;;;31.00;43.27
13027;BME280;6580;42.680;23.324;2023-08-06T12:35:59;94050.91;;;30.53;44.19
13027;BME280;6580;42.680;23.324;2023-08-06T12:38:49;94055.19;;;30.46;43.20
13027;BME280;6580;42.680;23.324;2023-08-06T12:41:35;94059.00;;;29.64;43.57
13027;BME280;6580;42.680;23.324;2023-08-06T12:44:22;94053.84;;;29.63;45.65
13027;BME280;6580;42.680;23.324;2023-08-06T12:47:10;94051.50;;;29.83;46.33
13027;BME280;6580;42.680;23.324;2023-08-06T12:49:58;94053.56;;;30.18;44.31
13027;BME280;6580;42.680;23.324;2023-08-06T12:52:45;94044.59;;;29.86;44.54
13027;BME280;6580;42.680;23.324;2023-08-06T12:55:30;94044.28;;;29.74;46.43
13027;BME280;6580;42.680;23.324;2023-08-06T12:58:17;94048.59;;;30.20;46.38
13027;BME280;6580;42.680;23.324;2023-08-06T13:01:03;94049.28;;;30.25;44.76
13027;BME280;6580;42.680;23.324;2023-08-06T13:03:50;94053.75;;;30.21;44.99
13027;BME280;6580;42.680;23.324;2023-08-06T13:06:36;94040.09;;;30.57;44.91
13027;BME280;6580;42.680;23.324;2023-08-06T13:09:24;94046.09;;;30.94;43.08
13027;BME280;6580;42.680;23.324;2023-08-06T13:12:09;94033.50;;;30.58;43.01
13027;BME280;6580;42.680;23.324;2023-08-06T13:14:56;94050.56;;;30.68;43.25
13027;BME280;6580;42.680;23.324;2023-08-06T13:17:43;94055.56;;;29.86;43.49
13027;BME280;6580;42.680;23.324;2023-08-06T13:20:31;94061.75;;;29.64;45.50
13027;BME280;6580;42.680;23.324;2023-08-06T13:23:18;94055.84;;;30.03;45.42
13027;BME280;6580;42.680;23.324;2023-08-06T13:26:04;94052.56;;;30.01;45.04
13027;BME280;6580;42.680;23.324;2023-08-06T13:29:03;94064.38;;;29.56;45.48
13027;BME280;6580;42.680;23.324;2023-08-06T13:31:51;94065.22;;;29.38;45.04
13027;BME280;6580;42.680;23.324;2023-08-06T13:34:37;94065.75;;;29.08;46.17
13027;BME280;6580;42.680;23.324;2023-08-06T13:37:24;94064.50;;;28.45;46.45
13027;BME280;6580;42.680;23.324;2023-08-06T13:40:10;94060.56;;;28.70;47.38
13027;BME280;6580;42.680;23.324;2023-08-06T13:42:57;94059.09;;;28.96;48.04
13027;BME280;6580;42.680;23.324;2023-08-06T13:45:43;94065.38;;;29.46;47.47
13027;BME280;6580;42.680;23.324;2023-08-06T13:48:28;94060.06;;;29.82;45.75
13027;BME280;6580;42.680;23.324;2023-08-06T13:51:16;94059.56;;;29.16;45.50
13027;BME280;6580;42.680;23.324;2023-08-06T13:54:03;94060.88;;;28.87;46.63
13027;BME280;6580;42.680;23.324;2023-08-06T13:56:49;94068.34;;;29.50;46.71
13027;BME280;6580;42.680;23.324;2023-08-06T13:59:35;94065.38;;;29.46;45.96
13027;BME280;6580;42.680;23.324;2023-08-06T14:02:20;94061.47;;;29.02;46.17
13027;BME280;6580;42.680;23.324;2023-08-06T14:05:07;94054.22;;;28.74;45.81
13027;BME280;6580;42.680;23.324;2023-08-06T14:07:52;94061.59;;;28.74;47.50
13027;BME280;6580;42.680;23.324;2023-08-06T14:10:39;94059.09;;;28.96;47.58
13027;BME280;6580;42.680;23.324;2023-08-06T14:13:25;94064.69;;;28.30;47.67
13027;BME280;6580;42.680;23.324;2023-08-06T14:16:10;94054.41;;;28.59;47.93
13027;BME280;6580;42.680;23.324;2023-08-06T14:18:58;94053.47;;;28.87;46.81
13027;BME280;6580;42.680;23.324;2023-08-06T14:21:44;94040.72;;;28.96;47.06
13027;BME280;6580;42.680;23.324;2023-08-06T14:24:30;94041.50;;;28.78;47.26
13027;BME280;6580;42.680;23.324;2023-08-06T14:27:17;94025.47;;;28.90;47.10
13027;BME280;6580;42.680;23.324;2023-08-06T14:30:04;94041.75;;;29.00;45.22
13027;BME280;6580;42.680;23.324;2023-08-06T14:32:50;94045.47;;;29.22;45.56
13027;BME280;6580;42.680;23.324;2023-08-06T14:35:36;94056.28;;;29.00;45.76
13027;BME280;6580;42.680;23.324;2023-08-06T14:38:21;94053.63;;;28.96;46.99